sensor_id;sensor_type;location;lat;lon;timestamp;P1;durP1;ratioP1;P2;durP2;ratioP2
43646;SDS011;56152;49.996;18.980;2022-07-10T00:00:24;9.23;;;5.82;;
43646;SDS011;56152;49.996;18.980;2022-07-10T00:05:43;8.00;;;6.35;;
43646;SDS011;56152;49.996;18.980;2022-07-10T00:10:45;8.25;;;5.35;;
43646;SDS011;56152;49.996;18.980;2022-07-10T00:15:47;6.13;;;5.53;;
43646;SDS011;56152;49.996;18.980;2022-07-10T00:20:57;8.02;;;5.45;;
43646;SDS011;56152;49.996;18.980;2022-07-10T00:26:04;6.88;;;5.55;;
43646;SDS011;56152;49.996;18.980;2022-07-10T00:31:23;7.72;;;4.85;;
43646;SDS011;56152;49.996;18.980;2022-07-10T00:36:28;5.70;;;4.85;;
43646;SDS011;56152;49.996;18.980;2022-07-10T00:41:32;6.72;;;4.70;;
43646;SDS011;56152;49.996;18.980;2022-07-10T00:46:37;5.90;;;4.88;;
43646;SDS011;56152;49.996;18.980;2022-07-10T00:51:47;6.88;;;4.50;;
43646;SDS011;56152;49.996;18.980;2022-07-10T00:56:49;6.72;;;4.50;;
43646;SDS011;56152;49.996;18.980;2022-07-10T01:01:55;6.65;;;4.50;;
43646;SDS011;56152;49.996;18.980;2022-07-10T01:06:58;6.93;;;4.80;;
43646;SDS011;56152;49.996;18.980;2022-07-10T01:17:19;6.28;;;4.15;;
43646;SDS011;56152;49.996;18.980;2022-07-10T01:28:06;7.43;;;4.60;;
43646;SDS011;56152;49.996;18.980;2022-07-10T01:33:08;5.75;;;3.88;;
43646;SDS011;56152;49.996;18.980;2022-07-10T01:38:13;6.53;;;4.25;;
43646;SDS011;56152;49.996;18.980;2022-07-10T01:43:22;5.82;;;4.00;;
43646;SDS011;56152;49.996;18.980;2022-07-10T01:48:26;6.00;;;3.83;;
43646;SDS011;56152;49.996;18.980;2022-07-10T01:53:29;5.03;;;3.45;;
43646;SDS011;56152;49.996;18.980;2022-07-10T01:58:32;9.15;;;3.70;;
43646;SDS011;56152;49.996;18.980;2022-07-10T02:03:34;9.00;;;3.67;;
43646;SDS011;56152;49.996;18.980;2022-07-10T02:08:54;6.63;;;3.55;;
43646;SDS011;56152;49.996;18.980;2022-07-10T02:13:59;5.80;;;4.30;;
43646;SDS011;56152;49.996;18.980;2022-07-10T02:19:02;5.78;;;3.65;;
43646;SDS011;56152;49.996;18.980;2022-07-10T02:24:06;7.55;;;3.95;;
43646;SDS011;56152;49.996;18.980;2022-07-10T02:29:09;7.32;;;4.53;;
43646;SDS011;56152;49.996;18.980;2022-07-10T02:34:11;5.05;;;4.13;;
43646;SDS011;56152;49.996;18.980;2022-07-10T02:39:14;4.80;;;3.33;;
43646;SDS011;56152;49.996;18.980;2022-07-10T02:44:19;8.57;;;4.40;;
43646;SDS011;56152;49.996;18.980;2022-07-10T02:49:37;4.93;;;3.70;;
43646;SDS011;56152;49.996;18.980;2022-07-10T02:54:39;6.28;;;3.85;;
43646;SDS011;56152;49.996;18.980;2022-07-10T02:59:54;9.90;;;4.53;;
43646;SDS011;56152;49.996;18.980;2022-07-10T03:04:59;5.63;;;4.22;;
43646;SDS011;56152;49.996;18.980;2022-07-10T03:15:12;4.90;;;3.42;;
43646;SDS011;56152;49.996;18.980;2022-07-10T03:20:25;4.88;;;3.38;;
43646;SDS011;56152;49.996;18.980;2022-07-10T03:25:27;6.90;;;3.17;;
43646;SDS011;56152;49.996;18.980;2022-07-10T03:30:33;3.95;;;3.20;;
43646;SDS011;56152;49.996;18.980;2022-07-10T03:35:35;3.20;;;2.70;;
43646;SDS011;56152;49.996;18.980;2022-07-10T03:40:53;4.75;;;2.80;;
43646;SDS011;56152;49.996;18.980;2022-07-10T03:45:56;4.30;;;2.95;;
43646;SDS011;56152;49.996;18.980;2022-07-10T03:50:58;5.45;;;2.58;;
43646;SDS011;56152;49.996;18.980;2022-07-10T03:56:02;6.47;;;3.42;;
43646;SDS011;56152;49.996;18.980;2022-07-10T04:01:07;3.67;;;2.90;;
43646;SDS011;56152;49.996;18.980;2022-07-10T04:06:11;3.70;;;2.90;;
43646;SDS011;56152;49.996;18.980;2022-07-10T04:11:27;3.30;;;2.47;;
43646;SDS011;56152;49.996;18.980;2022-07-10T04:16:32;9.77;;;4.13;;
43646;SDS011;56152;49.996;18.980;2022-07-10T04:21:36;3.88;;;3.00;;
43646;SDS011;56152;49.996;18.980;2022-07-10T04:26:39;5.85;;;3.55;;
43646;SDS011;56152;49.996;18.980;2022-07-10T04:31:56;5.88;;;4.07;;
43646;SDS011;56152;49.996;18.980;2022-07-10T04:36:57;6.80;;;3.47;;
43646;SDS011;56152;49.996;18.980;2022-07-10T04:42:00;5.50;;;3.78;;
43646;SDS011;56152;49.996;18.980;2022-07-10T04:47:05;5.80;;;3.72;;
43646;SDS011;56152;49.996;18.980;2022-07-10T04:52:13;4.90;;;3.40;;
43646;SDS011;56152;49.996;18.980;2022-07-10T04:57:29;7.72;;;3.63;;
43646;SDS011;56152;49.996;18.980;2022-07-10T05:02:34;7.78;;;3.75;;
43646;SDS011;56152;49.996;18.980;2022-07-10T05:07:36;7.28;;;3.55;;
43646;SDS011;56152;49.996;18.980;2022-07-10T05:12:45;3.97;;;3.00;;
43646;SDS011;56152;49.996;18.980;2022-07-10T05:17:50;5.05;;;2.97;;
43646;SDS011;56152;49.996;18.980;2022-07-10T05:22:52;3.03;;;2.38;;
43646;SDS011;56152;49.996;18.980;2022-07-10T05:27:59;4.18;;;2.40;;
43646;SDS011;56152;49.996;18.980;2022-07-10T05:33:04;3.50;;;2.88;;
43646;SDS011;56152;49.996;18.980;2022-07-10T05:38:09;3.03;;;2.10;;
43646;SDS011;56152;49.996;18.980;2022-07-10T05:43:32;2.42;;;2.20;;
43646;SDS011;56152;49.996;18.980;2022-07-10T05:53:43;3.13;;;2.00;;
43646;SDS011;56152;49.996;18.980;2022-07-10T05:58:45;2.50;;;1.90;;
43646;SDS011;56152;49.996;18.980;2022-07-10T06:04:03;3.88;;;2.10;;
43646;SDS011;56152;49.996;18.980;2022-07-10T06:09:07;5.10;;;1.77;;
43646;SDS011;56152;49.996;18.980;2022-07-10T06:14:23;2.95;;;1.63;;
43646;SDS011;56152;49.996;18.980;2022-07-10T06:19:27;5.05;;;2.20;;
43646;SDS011;56152;49.996;18.980;2022-07-10T06:24:30;5.72;;;2.10;;
43646;SDS011;56152;49.996;18.980;2022-07-10T06:29:32;4.15;;;1.98;;
43646;SDS011;56152;49.996;18.980;2022-07-10T06:34:37;3.60;;;2.00;;
43646;SDS011;56152;49.996;18.980;2022-07-10T06:45:39;3.20;;;1.38;;
43646;SDS011;56152;49.996;18.980;2022-07-10T06:55:50;5.45;;;1.80;;
43646;SDS011;56152;49.996;18.980;2022-07-10T07:06:08;3.40;;;1.85;;
43646;SDS011;56152;49.996;18.980;2022-07-10T07:11:11;8.27;;;1.75;;
43646;SDS011;56152;49.996;18.980;2022-07-10T07:16:17;3.38;;;1.42;;
43646;SDS011;56152;49.996;18.980;2022-07-10T07:21:29;4.60;;;1.73;;
43646;SDS011;56152;49.996;18.980;2022-07-10T07:32:24;2.35;;;1.60;;
43646;SDS011;56152;49.996;18.980;2022-07-10T07:37:37;4.00;;;1.83;;
43646;SDS011;56152;49.996;18.980;2022-07-10T07:42:40;4.22;;;2.03;;
43646;SDS011;56152;49.996;18.980;2022-07-10T07:47:44;3.10;;;1.40;;
43646;SDS011;56152;49.996;18.980;2022-07-10T07:52:48;5.20;;;2.22;;
43646;SDS011;56152;49.996;18.980;2022-07-10T07:57:52;4.32;;;1.92;;
43646;SDS011;56152;49.996;18.980;2022-07-10T08:03:09;6.28;;;1.55;;
43646;SDS011;56152;49.996;18.980;2022-07-10T08:08:14;9.10;;;2.00;;
43646;SDS011;56152;49.996;18.980;2022-07-10T08:13:17;1.75;;;1.25;;
43646;SDS011;56152;49.996;18.980;2022-07-10T08:18:20;2.88;;;1.35;;
43646;SDS011;56152;49.996;18.980;2022-07-10T08:23:28;3.92;;;1.70;;
43646;SDS011;56152;49.996;18.980;2022-07-10T08:28:30;3.88;;;1.60;;
43646;SDS011;56152;49.996;18.980;2022-07-10T08:33:34;4.80;;;1.90;;
43646;SDS011;56152;49.996;18.980;2022-07-10T08:38:38;3.53;;;1.58;;
43646;SDS011;56152;49.996;18.980;2022-07-10T08:43:52;5.07;;;1.60;;
43646;SDS011;56152;49.996;18.980;2022-07-10T08:48:56;6.38;;;1.50;;
43646;SDS011;56152;49.996;18.980;2022-07-10T08:54:04;4.68;;;1.45;;
43646;SDS011;56152;49.996;18.980;2022-07-10T08:59:06;9.85;;;1.65;;
43646;SDS011;56152;49.996;18.980;2022-07-10T09:04:23;2.88;;;1.48;;
43646;SDS011;56152;49.996;18.980;2022-07-10T09:09:32;3.85;;;1.40;;
43646;SDS011;56152;49.996;18.980;2022-07-10T09:15:06;5.55;;;1.70;;
43646;SDS011;56152;49.996;18.980;2022-07-10T09:20:29;4.25;;;1.75;;
43646;SDS011;56152;49.996;18.980;2022-07-10T09:25:35;4.05;;;1.60;;
43646;SDS011;56152;49.996;18.980;2022-07-10T09:30:39;8.02;;;1.80;;
43646;SDS011;56152;49.996;18.980;2022-07-10T09:35:54;2.70;;;1.33;;
43646;SDS011;56152;49.996;18.980;2022-07-10T09:41:19;7.32;;;1.67;;
43646;SDS011;56152;49.996;18.980;2022-07-10T09:46:22;6.88;;;1.80;;
43646;SDS011;56152;49.996;18.980;2022-07-10T09:51:26;3.72;;;1.40;;
43646;SDS011;56152;49.996;18.980;2022-07-10T09:56:39;6.05;;;1.40;;
43646;SDS011;56152;49.996;18.980;2022-07-10T10:01:45;3.78;;;1.67;;
43646;SDS011;56152;49.996;18.980;2022-07-10T10:06:58;3.33;;;1.48;;
43646;SDS011;56152;49.996;18.980;2022-07-10T10:12:07;5.53;;;1.70;;
43646;SDS011;56152;49.996;18.980;2022-07-10T10:17:31;7.05;;;1.60;;
43646;SDS011;56152;49.996;18.980;2022-07-10T10:22:38;8.90;;;1.90;;
43646;SDS011;56152;49.996;18.980;2022-07-10T10:27:43;5.43;;;1.45;;
43646;SDS011;56152;49.996;18.980;2022-07-10T10:32:48;4.15;;;1.45;;
43646;SDS011;56152;49.996;18.980;2022-07-10T10:37:50;6.30;;;1.85;;
43646;SDS011;56152;49.996;18.980;2022-07-10T10:48:25;3.25;;;1.40;;
43646;SDS011;56152;49.996;18.980;2022-07-10T10:53:37;3.28;;;1.35;;
43646;SDS011;56152;49.996;18.980;2022-07-10T10:58:41;2.28;;;1.40;;
43646;SDS011;56152;49.996;18.980;2022-07-10T11:03:56;5.47;;;1.30;;
43646;SDS011;56152;49.996;18.980;2022-07-10T11:09:21;2.45;;;1.40;;
43646;SDS011;56152;49.996;18.980;2022-07-10T11:14:30;5.18;;;2.20;;
43646;SDS011;56152;49.996;18.980;2022-07-10T11:19:33;6.25;;;1.05;;
43646;SDS011;56152;49.996;18.980;2022-07-10T11:24:40;3.38;;;1.58;;
43646;SDS011;56152;49.996;18.980;2022-07-10T11:30:01;4.85;;;1.50;;
43646;SDS011;56152;49.996;18.980;2022-07-10T11:35:17;5.13;;;1.33;;
43646;SDS011;56152;49.996;18.980;2022-07-10T11:40:22;3.72;;;1.38;;
43646;SDS011;56152;49.996;18.980;2022-07-10T11:45:36;4.05;;;1.33;;
43646;SDS011;56152;49.996;18.980;2022-07-10T11:50:39;2.85;;;1.30;;
43646;SDS011;56152;49.996;18.980;2022-07-10T11:55:40;4.30;;;1.33;;
43646;SDS011;56152;49.996;18.980;2022-07-10T12:06:18;7.20;;;1.70;;
43646;SDS011;56152;49.996;18.980;2022-07-10T12:11:29;2.38;;;1.20;;
43646;SDS011;56152;49.996;18.980;2022-07-10T12:16:37;4.78;;;1.38;;
43646;SDS011;56152;49.996;18.980;2022-07-10T12:21:43;1.65;;;1.05;;
43646;SDS011;56152;49.996;18.980;2022-07-10T12:26:47;3.88;;;1.45;;
43646;SDS011;56152;49.996;18.980;2022-07-10T12:31:52;5.30;;;1.48;;
43646;SDS011;56152;49.996;18.980;2022-07-10T12:36:56;3.38;;;0.90;;
43646;SDS011;56152;49.996;18.980;2022-07-10T12:41:59;1.50;;;0.85;;
43646;SDS011;56152;49.996;18.980;2022-07-10T12:47:12;4.18;;;1.25;;
43646;SDS011;56152;49.996;18.980;2022-07-10T12:52:21;2.95;;;1.10;;
43646;SDS011;56152;49.996;18.980;2022-07-10T12:57:47;4.63;;;1.00;;
43646;SDS011;56152;49.996;18.980;2022-07-10T13:03:02;3.97;;;0.82;;
43646;SDS011;56152;49.996;18.980;2022-07-10T13:08:07;4.85;;;1.00;;
43646;SDS011;56152;49.996;18.980;2022-07-10T13:13:27;2.40;;;1.10;;
43646;SDS011;56152;49.996;18.980;2022-07-10T13:18:31;3.58;;;1.02;;
43646;SDS011;56152;49.996;18.980;2022-07-10T13:23:34;4.65;;;1.40;;
43646;SDS011;56152;49.996;18.980;2022-07-10T13:28:37;3.35;;;1.40;;
43646;SDS011;56152;49.996;18.980;2022-07-10T13:33:46;2.47;;;1.05;;
43646;SDS011;56152;49.996;18.980;2022-07-10T13:38:47;6.35;;;1.30;;
43646;SDS011;56152;49.996;18.980;2022-07-10T13:43:51;2.45;;;1.00;;
43646;SDS011;56152;49.996;18.980;2022-07-10T13:48:57;1.70;;;0.90;;
43646;SDS011;56152;49.996;18.980;2022-07-10T13:53:59;1.17;;;0.80;;
43646;SDS011;56152;49.996;18.980;2022-07-10T13:59:10;1.58;;;0.77;;
43646;SDS011;56152;49.996;18.980;2022-07-10T14:04:17;1.02;;;0.80;;
43646;SDS011;56152;49.996;18.980;2022-07-10T14:09:31;5.05;;;1.10;;
43646;SDS011;56152;49.996;18.980;2022-07-10T14:14:35;2.78;;;0.90;;
43646;SDS011;56152;49.996;18.980;2022-07-10T14:19:53;2.55;;;0.90;;
43646;SDS011;56152;49.996;18.980;2022-07-10T14:25:02;5.05;;;1.15;;
43646;SDS011;56152;49.996;18.980;2022-07-10T14:30:10;1.42;;;0.73;;
43646;SDS011;56152;49.996;18.980;2022-07-10T14:35:15;4.07;;;1.00;;
43646;SDS011;56152;49.996;18.980;2022-07-10T14:40:17;4.68;;;1.02;;
43646;SDS011;56152;49.996;18.980;2022-07-10T14:45:27;2.30;;;0.88;;
43646;SDS011;56152;49.996;18.980;2022-07-10T14:50:31;1.38;;;0.80;;
43646;SDS011;56152;49.996;18.980;2022-07-10T14:55:44;1.40;;;0.65;;
43646;SDS011;56152;49.996;18.980;2022-07-10T15:00:46;2.47;;;0.90;;
43646;SDS011;56152;49.996;18.980;2022-07-10T15:05:58;1.85;;;0.82;;
43646;SDS011;56152;49.996;18.980;2022-07-10T15:11:07;2.00;;;0.95;;
43646;SDS011;56152;49.996;18.980;2022-07-10T15:16:10;6.28;;;1.42;;
43646;SDS011;56152;49.996;18.980;2022-07-10T15:21:17;4.55;;;0.80;;
43646;SDS011;56152;49.996;18.980;2022-07-10T15:26:35;4.43;;;1.13;;
43646;SDS011;56152;49.996;18.980;2022-07-10T15:31:40;0.90;;;0.63;;
43646;SDS011;56152;49.996;18.980;2022-07-10T15:36:47;2.30;;;1.00;;
43646;SDS011;56152;49.996;18.980;2022-07-10T15:41:49;1.48;;;0.77;;
43646;SDS011;56152;49.996;18.980;2022-07-10T15:46:51;0.60;;;0.60;;
43646;SDS011;56152;49.996;18.980;2022-07-10T15:51:54;1.42;;;0.40;;
43646;SDS011;56152;49.996;18.980;2022-07-10T15:56:59;1.48;;;0.70;;
43646;SDS011;56152;49.996;18.980;2022-07-10T16:02:04;2.70;;;0.90;;
43646;SDS011;56152;49.996;18.980;2022-07-10T16:07:12;3.30;;;1.10;;
43646;SDS011;56152;49.996;18.980;2022-07-10T16:12:14;2.40;;;1.33;;
43646;SDS011;56152;49.996;18.980;2022-07-10T16:17:17;1.20;;;0.88;;
43646;SDS011;56152;49.996;18.980;2022-07-10T16:22:24;4.22;;;1.23;;
43646;SDS011;56152;49.996;18.980;2022-07-10T16:27:26;3.20;;;1.27;;
43646;SDS011;56152;49.996;18.980;2022-07-10T16:32:29;3.38;;;1.30;;
43646;SDS011;56152;49.996;18.980;2022-07-10T16:37:33;3.92;;;1.20;;
43646;SDS011;56152;49.996;18.980;2022-07-10T16:42:35;2.55;;;1.27;;
43646;SDS011;56152;49.996;18.980;2022-07-10T16:47:40;6.10;;;1.73;;
43646;SDS011;56152;49.996;18.980;2022-07-10T16:52:43;3.55;;;1.48;;
43646;SDS011;56152;49.996;18.980;2022-07-10T17:03:08;3.83;;;1.33;;
43646;SDS011;56152;49.996;18.980;2022-07-10T17:08:14;5.75;;;1.70;;
43646;SDS011;56152;49.996;18.980;2022-07-10T17:13:17;3.25;;;1.77;;
43646;SDS011;56152;49.996;18.980;2022-07-10T17:18:20;7.65;;;4.00;;
43646;SDS011;56152;49.996;18.980;2022-07-10T17:23:28;5.28;;;3.08;;
43646;SDS011;56152;49.996;18.980;2022-07-10T17:28:34;3.28;;;2.22;;
43646;SDS011;56152;49.996;18.980;2022-07-10T17:33:36;5.68;;;1.50;;
43646;SDS011;56152;49.996;18.980;2022-07-10T17:38:41;4.57;;;1.88;;
43646;SDS011;56152;49.996;18.980;2022-07-10T17:43:44;2.28;;;1.27;;
43646;SDS011;56152;49.996;18.980;2022-07-10T17:48:47;2.83;;;1.48;;
43646;SDS011;56152;49.996;18.980;2022-07-10T17:53:52;2.83;;;1.40;;
43646;SDS011;56152;49.996;18.980;2022-07-10T18:04:30;4.43;;;2.10;;
43646;SDS011;56152;49.996;18.980;2022-07-10T18:09:53;2.92;;;1.50;;
43646;SDS011;56152;49.996;18.980;2022-07-10T18:14:55;3.38;;;1.60;;
43646;SDS011;56152;49.996;18.980;2022-07-10T18:25:43;3.15;;;1.83;;
43646;SDS011;56152;49.996;18.980;2022-07-10T18:30:46;4.03;;;1.55;;
43646;SDS011;56152;49.996;18.980;2022-07-10T18:35:52;3.47;;;1.48;;
43646;SDS011;56152;49.996;18.980;2022-07-10T18:41:16;3.97;;;1.65;;
43646;SDS011;56152;49.996;18.980;2022-07-10T18:46:18;3.90;;;2.00;;
43646;SDS011;56152;49.996;18.980;2022-07-10T18:51:20;2.80;;;1.80;;
43646;SDS011;56152;49.996;18.980;2022-07-10T18:56:29;4.30;;;2.13;;
43646;SDS011;56152;49.996;18.980;2022-07-10T19:01:38;3.03;;;1.40;;
43646;SDS011;56152;49.996;18.980;2022-07-10T19:12:12;4.13;;;1.77;;
43646;SDS011;56152;49.996;18.980;2022-07-10T19:17:16;3.10;;;1.60;;
